Time;durP1;ratioP1;P1;durP2;ratioP2;P2;SDS_P1;SDS_P2;PMS_P1;PMS_P2;Temp;Humidity;BMP_temperature;BMP_pressure;BME280_temperature;BME280_humidity;BME280_pressure;Samples;Min_cycle;Max_cycle;Signal;HPM_P1;HPM_P2
2022/03/02 00:00:24;;;;;;;31.63;13.45;;;;;;;-0.99;100.00;98841.03;5053508;28;20124;-77
2022/03/02 00:02:50;;;;;;;32.90;13.98;;;;;;;-1.15;100.00;98834.38;5045534;28;20041;-78
2022/03/02 00:05:17;;;;;;;31.65;14.75;;;;;;;-1.18;100.00;98837.44;5052731;28;20099;-77
2022/03/02 00:07:44;;;;;;;29.92;13.82;;;;;;;-1.23;100.00;98836.44;5054049;28;20080;-76
2022/03/02 00:10:10;;;;;;;35.42;13.23;;;;;;;-1.23;100.00;98841.75;5053266;28;20091;-77
2022/03/02 00:12:37;;;;;;;28.45;12.80;;;;;;;-1.21;100.00;98839.72;5052949;28;20048;-77
2022/03/02 00:15:04;;;;;;;35.20;13.70;;;;;;;-1.19;100.00;98827.84;5053701;28;20049;-77
2022/03/02 00:17:32;;;;;;;29.38;12.85;;;;;;;-1.17;100.00;98824.97;5054802;28;20056;-78
2022/03/02 00:19:58;;;;;;;33.13;13.65;;;;;;;-1.15;100.00;98825.56;5059060;28;20071;-78
2022/03/02 00:22:25;;;;;;;32.28;13.38;;;;;;;-1.07;100.00;98825.34;5058512;28;20098;-77
2022/03/02 00:24:52;;;;;;;34.97;14.75;;;;;;;-1.05;100.00;98824.09;5060679;28;20130;-78
2022/03/02 00:27:19;;;;;;;32.90;12.93;;;;;;;-1.05;100.00;98826.75;5062295;28;20037;-78
2022/03/02 00:29:46;;;;;;;27.95;13.15;;;;;;;-1.04;100.00;98827.56;5057315;28;20118;-77
2022/03/02 00:32:12;;;;;;;30.35;13.32;;;;;;;-1.09;100.00;98814.09;5052564;28;20049;-78
2022/03/02 00:34:39;;;;;;;34.53;13.40;;;;;;;-1.25;100.00;98815.41;5052156;28;20037;-78
2022/03/02 00:37:06;;;;;;;35.42;13.75;;;;;;;-1.30;100.00;98816.03;5055832;28;20041;-78
2022/03/02 00:39:33;;;;;;;30.52;13.27;;;;;;;-1.41;100.00;98818.50;5057067;28;20615;-78
2022/03/02 00:42:00;;;;;;;31.38;13.00;;;;;;;-1.44;100.00;98808.31;5055377;28;20131;-78
2022/03/02 00:44:26;;;;;;;29.75;13.13;;;;;;;-1.50;100.00;98803.84;5054847;28;20087;-78
2022/03/02 00:46:53;;;;;;;27.80;12.77;;;;;;;-1.45;100.00;98810.16;5054412;28;20424;-79
2022/03/02 00:49:24;;;;;;;30.92;12.90;;;;;;;-1.73;100.00;98790.22;5054420;28;20056;-78
2022/03/02 00:51:51;;;;;;;34.15;11.48;;;;;;;-1.66;100.00;98799.81;5053605;28;20102;-78
2022/03/02 00:54:18;;;;;;;31.15;12.57;;;;;;;-1.93;100.00;98798.22;5054212;28;20079;-78
2022/03/02 00:56:44;;;;;;;31.10;12.93;;;;;;;-1.94;100.00;98799.25;5053732;28;20072;-78
2022/03/02 00:59:11;;;;;;;24.15;12.85;;;;;;;-1.96;100.00;98809.22;5053490;28;20041;-77
2022/03/02 01:01:38;;;;;;;33.47;13.60;;;;;;;-1.91;100.00;98804.16;5052797;28;20103;-77
2022/03/02 01:04:07;;;;;;;28.67;13.77;;;;;;;-1.99;100.00;98802.50;5051512;28;20101;-77
2022/03/02 01:06:34;;;;;;;36.08;14.52;;;;;;;-1.95;100.00;98809.03;5050810;28;20628;-77
2022/03/02 01:09:01;;;;;;;36.38;14.88;;;;;;;-2.01;100.00;98793.13;5052327;28;20455;-77
2022/03/02 01:11:28;;;;;;;32.28;14.52;;;;;;;-1.94;100.00;98800.06;5052252;28;20122;-77
2022/03/02 01:13:55;;;;;;;31.00;14.02;;;;;;;-1.91;100.00;98801.50;5051822;28;20435;-78
2022/03/02 01:16:21;;;;;;;31.90;13.23;;;;;;;-2.10;100.00;98791.72;5052356;28;20052;-78
2022/03/02 01:18:48;;;;;;;30.95;13.63;;;;;;;-2.15;100.00;98789.69;5052200;28;20045;-78
2022/03/02 01:21:14;;;;;;;32.88;13.75;;;;;;;-2.28;100.00;98797.66;5039990;28;20046;-77
2022/03/02 01:23:41;;;;;;;35.88;14.80;;;;;;;-2.31;100.00;98783.97;5042971;28;20037;-77
2022/03/02 01:26:08;;;;;;;36.58;15.13;;;;;;;-2.18;100.00;98778.66;5053048;28;20041;-77
2022/03/02 01:28:34;;;;;;;29.33;13.82;;;;;;;-2.26;100.00;98779.69;5054077;28;20129;-79
2022/03/02 01:31:01;;;;;;;35.70;13.15;;;;;;;-2.08;100.00;98785.19;5051692;28;20500;-78
2022/03/02 01:33:28;;;;;;;30.42;13.98;;;;;;;-2.26;100.00;98768.25;5052238;28;20044;-77
2022/03/02 01:35:54;;;;;;;31.33;13.82;;;;;;;-2.16;100.00;98766.81;5053152;28;20045;-78
2022/03/02 01:38:21;;;;;;;32.95;13.88;;;;;;;-2.08;100.00;98779.06;5052404;28;20053;-77
2022/03/02 01:40:47;;;;;;;32.20;14.32;;;;;;;-2.19;100.00;98769.06;5052300;28;20076;-77
2022/03/02 01:43:14;;;;;;;32.30;13.70;;;;;;;-2.43;100.00;98764.41;5055501;28;20033;-77
2022/03/02 01:45:41;;;;;;;33.03;14.07;;;;;;;-2.25;100.00;98757.47;5076053;28;20037;-77
2022/03/02 01:48:07;;;;;;;30.40;13.10;;;;;;;-2.21;100.00;98765.81;5077536;28;20063;-78
2022/03/02 01:50:34;;;;;;;33.08;14.30;;;;;;;-2.16;100.00;98766.00;5057719;28;20052;-78
2022/03/02 01:53:01;;;;;;;40.75;14.27;;;;;;;-2.17;100.00;98762.53;5053433;28;20067;-77
2022/03/02 01:55:27;;;;;;;33.75;14.35;;;;;;;-2.13;100.00;98757.63;5035323;28;20050;-78
2022/03/02 01:57:56;;;;;;;29.88;12.82;;;;;;;-2.06;100.00;98745.16;5052879;28;20451;-77
2022/03/02 02:00:24;;;;;;;30.63;13.50;;;;;;;-2.04;100.00;98757.22;5051657;28;20037;-77
2022/03/02 02:02:51;;;;;;;34.05;13.32;;;;;;;-1.99;100.00;98756.59;5049737;28;20063;-75
2022/03/02 02:05:19;;;;;;;25.75;11.13;;;;;;;-2.35;100.00;98753.59;5051653;28;20090;-78
2022/03/02 02:07:46;;;;;;;30.10;12.18;;;;;;;-2.34;100.00;98755.22;5053484;28;20040;-76
2022/03/02 02:10:13;;;;;;;29.25;12.50;;;;;;;-2.30;100.00;98748.50;5051829;28;20135;-76
2022/03/02 02:12:40;;;;;;;29.05;12.70;;;;;;;-2.33;100.00;98747.06;5050845;28;20045;-77
2022/03/02 02:15:07;;;;;;;29.52;12.98;;;;;;;-2.43;100.00;98754.63;5051174;28;20106;-77
2022/03/02 02:17:34;;;;;;;32.22;12.10;;;;;;;-2.41;100.00;98757.06;5053213;28;20121;-77
2022/03/02 02:20:01;;;;;;;24.95;11.73;;;;;;;-2.56;100.00;98751.97;5051618;28;20048;-78
2022/03/02 02:22:28;;;;;;;31.02;12.73;;;;;;;-2.39;100.00;98741.75;5050702;28;20140;-77
2022/03/02 02:24:54;;;;;;;30.50;12.57;;;;;;;-2.34;100.00;98741.94;5056380;28;20037;-78
2022/03/02 02:27:22;;;;;;;33.38;13.10;;;;;;;-2.34;100.00;98755.22;5056820;28;20048;-78
2022/03/02 02:29:49;;;;;;;32.03;13.13;;;;;;;-2.29;100.00;98748.28;5051703;28;20067;-75
2022/03/02 02:32:16;;;;;;;27.10;12.73;;;;;;;-2.28;100.00;98741.13;5050695;28;20072;-78
2022/03/02 02:34:43;;;;;;;30.95;12.55;;;;;;;-2.29;100.00;98744.78;5049814;28;20040;-76
2022/03/02 02:37:09;;;;;;;27.42;11.07;;;;;;;-2.24;100.00;98729.91;5050267;28;20418;-77
2022/03/02 02:39:37;;;;;;;28.20;12.48;;;;;;;-2.43;100.00;98735.25;5050959;28;20140;-77
2022/03/02 02:42:05;;;;;;;29.60;12.52;;;;;;;-2.31;100.00;98734.41;5050098;28;20049;-76
2022/03/02 02:44:34;;;;;;;27.95;12.25;;;;;;;-2.32;100.00;98721.38;5049732;28;20157;-77
2022/03/02 02:47:01;;;;;;;29.17;12.35;;;;;;;-2.35;100.00;98730.56;5050439;28;20077;-78
2022/03/02 02:49:27;;;;;;;28.25;12.68;;;;;;;-2.27;100.00;98729.53;5052156;28;20068;-78
2022/03/02 02:51:54;;;;;;;25.48;11.85;;;;;;;-2.20;100.00;98722.38;5053722;28;20048;-79
2022/03/02 02:54:21;;;;;;;25.65;11.95;;;;;;;-2.11;100.00;98715.81;5052975;28;20049;-78
2022/03/02 02:56:48;;;;;;;30.80;12.38;;;;;;;-2.06;100.00;98703.56;5050603;28;20040;-77
2022/03/02 02:59:15;;;;;;;24.20;11.23;;;;;;;-2.01;100.00;98710.88;5047948;28;20044;-75
2022/03/02 03:01:42;;;;;;;25.73;11.27;;;;;;;-2.03;100.00;98707.63;5049960;28;20429;-79
2022/03/02 03:04:09;;;;;;;29.08;11.95;;;;;;;-1.99;100.00;98693.72;5049515;28;20067;-77
2022/03/02 03:06:36;;;;;;;30.27;12.57;;;;;;;-1.94;100.00;98693.13;5048911;28;20049;-77
2022/03/02 03:09:03;;;;;;;30.90;12.70;;;;;;;-1.89;100.00;98682.69;5049420;28;20041;-77
2022/03/02 03:11:29;;;;;;;29.45;11.90;;;;;;;-1.83;100.00;98681.06;5049314;28;20119;-77
2022/03/02 03:13:56;;;;;;;28.10;12.18;;;;;;;-1.88;100.00;98693.09;5048892;28;20049;-78
2022/03/02 03:16:22;;;;;;;29.52;12.02;;;;;;;-1.85;100.00;98683.06;5049990;28;20071;-77
2022/03/02 03:18:49;;;;;;;25.92;11.88;;;;;;;-1.77;100.00;98678.34;5049557;28;20611;-77
2022/03/02 03:21:16;;;;;;;26.88;11.48;;;;;;;-1.72;100.00;98681.19;5049542;28;20508;-76
2022/03/02 03:23:42;;;;;;;25.58;12.52;;;;;;;-1.72;100.00;98673.22;5048585;28;20124;-77
2022/03/02 03:26:09;;;;;;;28.80;12.02;;;;;;;-1.79;100.00;98680.41;5049760;28;20052;-77
2022/03/02 03:28:35;;;;;;;35.33;12.52;;;;;;;-1.76;100.00;98669.38;5049788;28;20539;-77
2022/03/02 03:31:02;;;;;;;29.08;11.90;;;;;;;-1.63;100.00;98664.00;5050338;28;20049;-78
2022/03/02 03:33:29;;;;;;;31.58;12.52;;;;;;;-1.64;100.00;98674.81;5048402;28;20048;-77
2022/03/02 03:35:58;;;;;;;40.78;13.07;;;;;;;-1.61;100.00;98667.25;5050605;28;20045;-78
2022/03/02 03:38:24;;;;;;;31.02;12.15;;;;;;;-1.54;100.00;98664.56;5050656;28;20045;-77
2022/03/02 03:40:51;;;;;;;31.73;13.30;;;;;;;-1.49;100.00;98649.63;5051409;28;20084;-78
2022/03/02 03:43:17;;;;;;;27.63;12.10;;;;;;;-1.45;100.00;98669.44;5049093;28;20111;-77
2022/03/02 03:45:44;;;;;;;27.13;12.80;;;;;;;-1.50;100.00;98663.13;5048849;28;20053;-77
2022/03/02 03:48:11;;;;;;;31.02;13.23;;;;;;;-1.49;100.00;98667.41;5039049;28;20049;-75
2022/03/02 03:50:37;;;;;;;30.98;12.23;;;;;;;-1.49;100.00;98657.59;5046997;28;20049;-77
2022/03/02 03:53:04;;;;;;;27.70;11.95;;;;;;;-1.53;100.00;98661.72;5048426;28;20400;-78
2022/03/02 03:55:33;;;;;;;31.13;12.65;;;;;;;-1.63;100.00;98653.41;5048422;28;20044;-78
2022/03/02 03:58:00;;;;;;;26.85;11.82;;;;;;;-1.79;100.00;98666.31;5049329;28;20049;-75
2022/03/02 04:00:26;;;;;;;26.30;11.52;;;;;;;-1.73;100.00;98663.63;5049209;28;20566;-77
2022/03/02 04:02:53;;;;;;;27.90;11.73;;;;;;;-1.74;100.00;98656.72;5048653;28;20126;-78
2022/03/02 04:05:20;;;;;;;25.98;11.77;;;;;;;-1.58;100.00;98653.56;5048128;28;20056;-77
2022/03/02 04:07:47;;;;;;;34.40;13.13;;;;;;;-1.60;100.00;98649.50;5048019;28;20087;-76
2022/03/02 04:10:14;;;;;;;28.85;12.93;;;;;;;-1.52;100.00;98651.88;5048758;28;20095;-77
2022/03/02 04:12:41;;;;;;;31.58;12.43;;;;;;;-1.38;100.00;98656.09;5048711;28;20094;-78
2022/03/02 04:15:08;;;;;;;28.67;12.55;;;;;;;-1.39;100.00;98649.97;5047922;28;20056;-77
2022/03/02 04:17:35;;;;;;;25.58;11.75;;;;;;;-1.40;100.00;98645.72;5049448;28;20044;-78
2022/03/02 04:20:04;;;;;;;32.08;12.20;;;;;;;-1.26;100.00;98636.63;5049065;28;20443;-77
2022/03/02 04:22:31;;;;;;;27.77;11.85;;;;;;;-1.26;100.00;98631.31;5047506;28;20049;-77
2022/03/02 04:24:57;;;;;;;30.48;12.38;;;;;;;-1.18;100.00;98635.53;5048750;28;20505;-77
2022/03/02 04:27:24;;;;;;;34.05;12.73;;;;;;;-1.10;100.00;98639.78;5048503;28;20044;-78
2022/03/02 04:29:50;;;;;;;27.17;11.80;;;;;;;-1.16;100.00;98630.81;5048680;28;20489;-77
2022/03/02 04:32:17;;;;;;;30.58;11.98;;;;;;;-1.11;100.00;98633.63;5047178;28;20515;-77
2022/03/02 04:34:43;;;;;;;29.83;12.90;;;;;;;-1.10;100.00;98627.31;5047719;28;20532;-78
2022/03/02 04:37:10;;;;;;;27.55;11.85;;;;;;;-1.10;100.00;98626.50;5048121;28;20481;-77
2022/03/02 04:39:37;;;;;;;31.05;12.57;;;;;;;-0.96;100.00;98636.81;5049673;28;20048;-75
2022/03/02 04:42:04;;;;;;;29.42;11.70;;;;;;;-0.94;100.00;98620.66;5042803;28;20045;-75
2022/03/02 04:44:31;;;;;;;29.77;12.45;;;;;;;-0.85;100.00;98619.34;5034671;28;20440;-77
2022/03/02 04:46:57;;;;;;;31.08;12.30;;;;;;;-0.98;100.00;98630.09;5034284;28;20056;-77
2022/03/02 04:49:24;;;;;;;41.65;14.95;;;;;;;-0.76;100.00;98647.28;5032244;28;20041;-77
2022/03/02 04:51:51;;;;;;;56.30;19.58;;;;;;;-0.70;100.00;98638.44;5031153;28;20084;-77
2022/03/02 04:57:04;;;;;;;;;;;;;;;-0.60;100.00;98636.09;5035554;28;20076;-76
2022/03/02 04:59:31;;;;;;;25.88;11.23;;;;;;;-0.79;100.00;98631.75;5034869;28;19929;-75
2022/03/02 05:01:59;;;;;;;26.25;12.05;;;;;;;-0.70;100.00;98635.78;5041953;28;20052;-77
2022/03/02 05:04:26;;;;;;;24.15;11.20;;;;;;;-0.77;100.00;98625.19;5051412;28;20047;-76
2022/03/02 05:06:53;;;;;;;28.92;11.98;;;;;;;-0.70;100.00;98623.28;5055318;28;20152;-75
2022/03/02 05:09:22;;;;;;;27.63;11.60;;;;;;;-0.56;100.00;98628.47;5066154;28;20067;-76
2022/03/02 05:11:49;;;;;;;26.95;12.30;;;;;;;-0.59;100.00;98619.09;5076866;28;20458;-75
2022/03/02 05:14:16;;;;;;;25.75;11.88;;;;;;;-0.46;100.00;98621.63;5070699;28;20049;-77
2022/03/02 05:16:42;;;;;;;30.05;12.32;;;;;;;-0.36;100.00;98624.59;5051891;28;20045;-77
2022/03/02 05:19:09;;;;;;;25.17;11.63;;;;;;;-0.78;100.00;98612.94;5054368;28;20090;-78
2022/03/02 05:21:36;;;;;;;24.02;11.23;;;;;;;-0.83;100.00;98617.28;5054762;28;20052;-77
2022/03/02 05:24:03;;;;;;;28.88;12.45;;;;;;;-0.79;100.00;98627.25;5055106;28;20495;-77
2022/03/02 05:26:29;;;;;;;26.88;11.80;;;;;;;-1.09;100.00;98622.81;5054735;28;20048;-78
2022/03/02 05:28:56;;;;;;;31.30;11.90;;;;;;;-1.35;100.00;98621.97;5053487;28;20052;-77
2022/03/02 05:31:24;;;;;;;28.45;12.27;;;;;;;-1.09;100.00;98620.16;5052793;28;20419;-77
2022/03/02 05:33:51;;;;;;;25.55;11.80;;;;;;;-0.96;100.00;98604.09;5050208;28;20056;-76
2022/03/02 05:36:23;;;;;;;28.52;12.65;;;;;;;-0.97;100.00;98619.25;5049870;28;20083;-78
2022/03/02 05:38:51;;;;;;;25.75;12.20;;;;;;;-0.83;100.00;98614.63;5052046;28;20184;-76
2022/03/02 05:41:18;;;;;;;24.75;12.32;;;;;;;-0.71;100.00;98616.34;5052202;28;20076;-74
2022/03/02 05:43:45;;;;;;;29.80;11.48;;;;;;;-0.64;100.00;98619.75;5051028;28;20439;-77
2022/03/02 05:46:12;;;;;;;24.98;12.05;;;;;;;-0.61;100.00;98613.19;5051030;28;20041;-77
2022/03/02 05:48:38;;;;;;;27.85;11.95;;;;;;;-0.51;100.00;98613.50;5051670;28;20056;-78
2022/03/02 05:51:05;;;;;;;28.23;11.93;;;;;;;-0.51;100.00;98610.00;5047120;28;20045;-77
2022/03/02 05:53:32;;;;;;;28.13;12.13;;;;;;;-0.52;100.00;98614.53;5030073;28;20510;-78
2022/03/02 05:55:58;;;;;;;27.73;12.30;;;;;;;-0.55;100.00;98620.28;5030920;28;20107;-77
2022/03/02 05:58:30;;;;;;;31.20;12.95;;;;;;;-0.53;100.00;98612.91;5030810;28;20089;-78
2022/03/02 06:00:57;;;;;;;31.60;12.18;;;;;;;-0.44;100.00;98611.56;5029671;28;20045;-79
2022/03/02 06:03:23;;;;;;;27.40;12.35;;;;;;;-0.34;100.00;98619.88;5029473;28;20041;-77
2022/03/02 06:05:50;;;;;;;30.63;12.90;;;;;;;-0.26;100.00;98618.78;5030910;28;20095;-77
2022/03/02 06:08:17;;;;;;;26.55;12.40;;;;;;;-0.23;100.00;98624.44;5032220;28;20049;-79
2022/03/02 06:10:46;;;;;;;31.20;12.52;;;;;;;-0.19;100.00;98622.16;5035849;28;20507;-77
2022/03/02 06:13:14;;;;;;;27.38;12.00;;;;;;;0.03;100.00;98618.00;5043792;28;20053;-77
2022/03/02 06:15:43;;;;;;;29.35;11.77;;;;;;;0.14;100.00;98627.91;5047254;28;20435;-76
2022/03/02 06:18:10;;;;;;;26.42;11.95;;;;;;;0.20;100.00;98618.22;5050235;28;20557;-75
2022/03/02 06:20:37;;;;;;;25.08;11.52;;;;;;;0.21;100.00;98619.81;5036195;28;20057;-77
2022/03/02 06:23:04;;;;;;;24.55;11.18;;;;;;;0.32;100.00;98619.06;5028664;28;20053;-77
2022/03/02 06:25:31;;;;;;;28.85;11.27;;;;;;;0.46;100.00;98624.03;5033510;28;20512;-77
2022/03/02 06:28:02;;;;;;;28.25;12.07;;;;;;;0.50;100.00;98627.03;5047424;28;20064;-77
2022/03/02 06:30:28;;;;;;;28.38;11.98;;;;;;;0.42;100.00;98632.66;5047763;28;20049;-77
2022/03/02 06:32:55;;;;;;;36.38;11.32;;;;;;;0.42;100.00;98622.84;5047771;28;20544;-77
2022/03/02 06:35:21;;;;;;;25.60;11.68;;;;;;;0.66;100.00;98618.41;5047313;28;20523;-77
2022/03/02 06:37:48;;;;;;;29.90;11.90;;;;;;;0.83;100.00;98622.03;5048841;28;20049;-76
2022/03/02 06:40:15;;;;;;;28.23;11.82;;;;;;;0.84;100.00;98623.66;5049420;28;20044;-76
2022/03/02 06:43:03;;;;;;;29.38;12.40;;;;;;;1.04;100.00;98637.50;5053188;28;20148;-76
2022/03/02 06:45:57;;;;;;;27.92;11.98;;;;;;;1.14;100.00;98636.94;5045065;28;20045;-75
2022/03/02 06:48:34;;;;;;;31.95;12.40;;;;;;;1.23;100.00;98641.72;5045861;28;20055;-75
2022/03/02 06:51:01;;;;;;;28.25;11.55;;;;;;;1.06;100.00;98631.94;5046924;28;20041;-76
2022/03/02 06:53:32;;;;;;;27.75;11.68;;;;;;;1.32;100.00;98625.38;5044729;28;20053;-76
2022/03/02 06:56:00;;;;;;;30.23;11.52;;;;;;;1.40;100.00;98639.16;5046558;28;20041;-76
2022/03/02 06:58:34;;;;;;;27.17;11.45;;;;;;;1.29;100.00;98631.16;5046334;28;20905;-76
2022/03/02 07:01:01;;;;;;;29.75;11.30;;;;;;;1.36;100.00;98639.88;5046702;28;20084;-77
2022/03/02 07:03:40;;;;;;;28.42;10.43;;;;;;;1.36;100.00;98639.88;5039912;28;20475;-75
2022/03/02 07:06:06;;;;;;;25.65;11.32;;;;;;;1.47;100.00;98637.19;5043119;28;20052;-75
2022/03/02 07:08:36;;;;;;;26.77;10.93;;;;;;;1.40;100.00;98627.69;5031095;28;20053;-75
2022/03/02 07:11:02;;;;;;;27.88;11.40;;;;;;;1.31;100.00;98637.06;5040368;28;20041;-75
2022/03/02 07:13:33;;;;;;;22.25;10.20;;;;;;;1.49;100.00;98634.31;5041818;28;20128;-75
2022/03/02 07:16:00;;;;;;;22.85;10.27;;;;;;;1.32;100.00;98638.72;5039753;28;20049;-76
2022/03/02 07:18:27;;;;;;;25.33;10.57;;;;;;;1.39;100.00;98631.41;5042206;28;20053;-76
2022/03/02 07:20:57;;;;;;;23.90;10.57;;;;;;;1.50;100.00;98641.25;5047654;28;20458;-76
2022/03/02 07:23:28;;;;;;;28.10;11.75;;;;;;;1.45;100.00;98641.94;5029258;28;20067;-77
2022/03/02 07:25:59;;;;;;;29.35;12.13;;;;;;;1.49;100.00;98631.63;5031170;28;20187;-76
2022/03/02 07:28:26;;;;;;;24.50;11.05;;;;;;;1.52;100.00;98629.31;5038387;28;20045;-77
2022/03/02 07:30:57;;;;;;;26.45;11.07;;;;;;;1.66;100.00;98627.22;5050153;28;20587;-76
2022/03/02 07:33:25;;;;;;;26.10;10.70;;;;;;;1.72;100.00;98640.44;5048537;28;20135;-75
2022/03/02 07:35:56;;;;;;;26.17;11.52;;;;;;;1.74;100.00;98635.69;5047719;28;20485;-76
2022/03/02 07:38:23;;;;;;;26.00;11.57;;;;;;;1.64;100.00;98637.31;5048412;28;20111;-77
2022/03/02 07:40:58;;;;;;;26.92;11.50;;;;;;;1.89;100.00;98638.69;5036421;28;20121;-76
2022/03/02 07:43:29;;;;;;;25.35;11.02;;;;;;;2.28;100.00;98631.75;5035516;28;20632;-76
2022/03/02 07:45:56;;;;;;;27.15;11.48;;;;;;;2.46;100.00;98638.75;5028882;28;20034;-76
2022/03/02 07:48:22;;;;;;;23.90;10.77;;;;;;;2.62;100.00;98630.00;5026641;28;20061;-75
2022/03/02 07:50:49;;;;;;;26.75;11.43;;;;;;;2.71;100.00;98633.09;5028104;28;20084;-77
2022/03/02 07:53:18;;;;;;;23.77;11.40;;;;;;;2.75;100.00;98634.22;5043968;28;20080;-77
2022/03/02 07:55:46;;;;;;;20.75;9.98;;;;;;;2.95;100.00;98643.41;5042616;28;20049;-76
2022/03/02 07:58:16;;;;;;;31.70;15.70;;;;;;;2.83;99.88;98644.53;5038368;28;20833;-76
2022/03/02 08:00:48;;;;;;;26.95;11.02;;;;;;;3.24;96.26;98632.66;5047256;28;20049;-77
2022/03/02 08:03:16;;;;;;;23.67;10.75;;;;;;;3.48;92.70;98640.28;5048700;28;20132;-77
2022/03/02 08:05:45;;;;;;;21.60;10.32;;;;;;;3.42;88.20;98635.91;5045856;28;20055;-77
2022/03/02 08:08:11;;;;;;;20.48;10.10;;;;;;;3.68;87.12;98643.28;5045395;28;20087;-77
2022/03/02 08:10:38;;;;;;;24.77;10.13;;;;;;;4.01;82.75;98636.22;5048070;28;20044;-76
2022/03/02 08:13:04;;;;;;;41.25;15.75;;;;;;;4.34;79.94;98644.94;5047858;28;20084;-77
2022/03/02 08:15:31;;;;;;;24.75;10.23;;;;;;;4.65;73.03;98634.56;5050103;28;20052;-76
2022/03/02 08:17:58;;;;;;;25.60;9.95;;;;;;;4.80;71.29;98632.06;5050432;28;20111;-77
2022/03/02 08:20:48;;;;;;;25.55;9.98;;;;;;;4.74;72.14;98641.13;5049031;28;20436;-76
2022/03/02 08:23:16;;;;;;;24.00;10.02;;;;;;;4.98;71.77;98642.44;5051860;28;20045;-76
2022/03/02 08:25:42;;;;;;;31.52;10.77;;;;;;;4.63;73.76;98626.78;5050550;28;20044;-75
2022/03/02 08:28:10;;;;;;;23.20;10.82;;;;;;;4.75;78.42;98630.13;5049061;28;20171;-77
2022/03/02 08:30:37;;;;;;;21.42;10.40;;;;;;;4.84;74.10;98633.97;5048694;28;20514;-76
2022/03/02 08:33:04;;;;;;;28.55;10.00;;;;;;;4.84;77.41;98625.13;5052451;28;20053;-76
2022/03/02 08:35:38;;;;;;;29.17;10.13;;;;;;;4.94;79.08;98623.34;5060668;28;20060;-75
2022/03/02 08:38:05;;;;;;;21.13;9.45;;;;;;;5.02;74.31;98614.03;5052671;28;20041;-75
2022/03/02 08:40:32;;;;;;;20.05;9.88;;;;;;;4.82;76.99;98624.56;5043152;28;20041;-77
2022/03/02 08:43:00;;;;;;;23.30;9.85;;;;;;;4.56;79.83;98607.41;5051291;28;20083;-77
2022/03/02 08:45:27;;;;;;;26.27;9.90;;;;;;;4.91;78.23;98615.78;5051623;28;20040;-76
2022/03/02 08:47:54;;;;;;;24.20;9.43;;;;;;;5.33;77.36;98607.03;5052127;28;20059;-76
2022/03/02 08:50:20;;;;;;;23.40;10.27;;;;;;;5.38;76.70;98610.56;5051659;28;20049;-77
2022/03/02 08:52:49;;;;;;;23.13;10.18;;;;;;;5.28;73.01;98605.13;5051641;28;20106;-77
2022/03/02 08:55:16;;;;;;;21.40;10.60;;;;;;;5.35;71.27;98594.16;5051443;28;20060;-77
2022/03/02 08:57:43;;;;;;;24.17;9.82;;;;;;;5.16;73.25;98595.63;5051507;28;20053;-77
2022/03/02 09:00:13;;;;;;;23.50;10.20;;;;;;;5.26;74.93;98606.44;5051132;28;20049;-76
2022/03/02 09:02:40;;;;;;;21.70;10.00;;;;;;;5.23;77.95;98594.34;5050894;28;20366;-76
2022/03/02 09:05:08;;;;;;;22.25;9.80;;;;;;;5.23;75.25;98585.47;5050829;28;20068;-76
2022/03/02 09:07:35;;;;;;;22.17;10.13;;;;;;;5.64;72.62;98587.38;5050995;28;20099;-76
2022/03/02 09:10:02;;;;;;;19.80;9.60;;;;;;;5.92;70.32;98584.34;5050207;28;20641;-76
2022/03/02 09:12:28;;;;;;;18.58;9.63;;;;;;;6.05;65.38;98581.16;5048716;28;20523;-77
2022/03/02 09:14:56;;;;;;;20.08;9.68;;;;;;;5.71;67.54;98565.63;5051402;28;20063;-77
2022/03/02 09:17:24;;;;;;;20.20;9.57;;;;;;;5.98;69.40;98574.41;5049074;28;20064;-77
2022/03/02 09:19:55;;;;;;;22.95;10.18;;;;;;;6.10;68.20;98570.44;5050652;28;20099;-78
2022/03/02 09:22:24;;;;;;;25.08;9.63;;;;;;;6.15;63.56;98558.88;5048081;28;20048;-76
2022/03/02 09:24:52;;;;;;;21.30;10.40;;;;;;;6.62;62.42;98578.41;5049144;28;20041;-77
2022/03/02 09:27:20;;;;;;;20.90;9.98;;;;;;;6.71;61.01;98560.66;5049497;28;20418;-76
2022/03/02 09:29:48;;;;;;;33.17;10.10;;;;;;;6.40;62.53;98563.56;5051925;28;20056;-76
2022/03/02 09:32:15;;;;;;;25.60;10.27;;;;;;;5.96;63.88;98563.91;5050578;28;20056;-77
2022/03/02 09:34:45;;;;;;;22.65;10.10;;;;;;;5.95;64.44;98551.56;5049540;28;20068;-76
2022/03/02 09:37:17;;;;;;;23.08;9.50;;;;;;;5.98;65.41;98558.28;5050090;28;20067;-74
2022/03/02 09:39:48;;;;;;;23.60;10.45;;;;;;;6.31;62.23;98551.69;5048789;28;20053;-75
2022/03/02 09:42:30;;;;;;;20.48;9.80;;;;;;;6.95;59.70;98550.16;5037825;28;20099;-76
2022/03/02 09:45:08;;;;;;;20.92;9.88;;;;;;;7.95;56.00;98551.88;5039589;28;20516;-76
2022/03/02 09:47:49;;;;;;;21.25;10.02;;;;;;;8.31;53.38;98535.59;5036669;28;20067;-76
2022/03/02 09:50:17;;;;;;;22.15;9.80;;;;;;;8.57;51.56;98532.47;5029751;28;20115;-77
2022/03/02 09:52:48;;;;;;;23.55;10.27;;;;;;;10.73;48.19;98536.69;5029352;28;20379;-77
2022/03/02 09:55:16;;;;;;;24.45;9.45;;;;;;;9.33;49.63;98546.19;5046203;28;20045;-77
2022/03/02 09:57:46;;;;;;;19.83;8.95;;;;;;;11.21;44.66;98538.09;5049863;28;20063;-79
2022/03/02 10:00:16;;;;;;;19.55;9.52;;;;;;;13.15;41.18;98514.84;5049212;28;20087;-77
2022/03/02 10:02:45;;;;;;;16.25;7.97;;;;;;;14.34;34.96;98509.16;5049013;28;20135;-76
2022/03/02 10:05:18;;;;;;;16.48;7.65;;;;;;;15.17;33.22;98521.53;5047636;28;20068;-76
2022/03/02 10:07:59;;;;;;;14.85;8.18;;;;;;;15.70;30.79;98521.13;5046545;28;20156;-76
2022/03/02 10:10:28;;;;;;;16.40;8.40;;;;;;;15.49;32.17;98522.94;5048737;28;20049;-76
2022/03/02 10:13:01;;;;;;;15.32;7.82;;;;;;;13.76;35.19;98525.75;5043141;28;20131;-77
2022/03/02 10:15:29;;;;;;;17.65;9.15;;;;;;;16.30;32.40;98522.78;5047863;28;20464;-77
2022/03/02 10:18:06;;;;;;;16.33;8.88;;;;;;;16.22;31.89;98513.50;5047812;28;20393;-77
2022/03/02 10:20:37;;;;;;;17.27;8.52;;;;;;;15.52;32.91;98525.03;5047655;28;20056;-76
2022/03/02 10:23:40;;;;;;;14.07;8.80;;;;;;;18.06;29.76;98510.09;5048299;28;20056;-77
2022/03/02 10:26:16;;;;;;;14.30;8.65;;;;;;;17.75;30.07;98502.41;5048565;28;20049;-77
2022/03/02 10:28:43;;;;;;;;;;;;;;;17.56;29.82;98513.09;5048262;28;20516;-77
2022/03/02 10:31:40;;;;;;;16.05;8.82;;;;;;;17.89;30.36;98510.28;5049368;28;19921;-77
2022/03/02 10:34:16;;;;;;;15.90;8.63;;;;;;;17.98;29.57;98498.09;5052691;28;20059;-78
2022/03/02 10:36:46;;;;;;;16.05;8.50;;;;;;;18.53;27.75;98502.22;5047958;28;20041;-78
2022/03/02 10:39:39;;;;;;;14.70;8.70;;;;;;;18.02;28.37;98498.19;5031429;28;20077;-75
2022/03/02 10:42:16;;;;;;;20.40;9.05;;;;;;;18.07;28.02;98492.47;5034840;28;20048;-76
2022/03/02 10:44:52;;;;;;;17.05;8.75;;;;;;;18.20;27.94;98485.06;5048348;28;20049;-78
2022/03/02 10:47:24;;;;;;;12.70;7.20;;;;;;;17.32;27.47;98480.94;5040278;28;20473;-76
2022/03/02 10:49:52;;;;;;;12.57;7.00;;;;;;;17.86;27.53;98489.06;5044550;28;20056;-76
2022/03/02 10:52:22;;;;;;;11.95;6.63;;;;;;;17.33;26.96;98488.03;5046718;28;20049;-76
2022/03/02 10:54:54;;;;;;;14.25;7.57;;;;;;;17.26;27.82;98484.25;5047341;28;20475;-76
2022/03/02 10:57:25;;;;;;;14.25;8.00;;;;;;;17.01;28.31;98475.13;5048421;28;20086;-77
2022/03/02 10:59:54;;;;;;;12.98;7.75;;;;;;;17.65;27.39;98478.22;5048945;28;20049;-77
2022/03/02 11:02:22;;;;;;;13.70;8.48;;;;;;;17.02;27.71;98463.06;5047362;28;20075;-76
2022/03/02 11:04:53;;;;;;;12.60;7.88;;;;;;;18.20;27.09;98466.66;5046243;28;20056;-77
2022/03/02 11:07:20;;;;;;;16.35;8.80;;;;;;;18.45;26.42;98454.50;5037865;28;20111;-77
2022/03/02 11:09:50;;;;;;;13.55;8.38;;;;;;;18.64;26.18;98452.00;5041054;28;20394;-77
2022/03/02 11:12:20;;;;;;;15.80;8.23;;;;;;;20.16;25.10;98445.03;5047110;28;20477;-77
2022/03/02 11:15:00;;;;;;;12.00;7.78;;;;;;;21.25;24.46;98429.28;5044430;28;20543;-78
2022/03/02 11:17:29;;;;;;;15.98;9.10;;;;;;;22.01;23.13;98433.78;5013318;28;20129;-77
2022/03/02 11:19:57;;;;;;;16.30;7.60;;;;;;;21.47;23.64;98429.28;5052048;28;20053;-76
2022/03/02 11:22:27;;;;;;;11.85;7.55;;;;;;;21.24;23.84;98422.19;5050698;28;20139;-78
2022/03/02 11:24:56;;;;;;;12.95;7.97;;;;;;;21.23;23.20;98423.34;5039235;28;20697;-78